createdAt,value
2023-03-27T00:00:05.451Z,0.00
2023-03-27T00:01:05.385Z,0.00
2023-03-27T00:02:05.498Z,0.00
2023-03-27T00:03:05.469Z,0.00
2023-03-27T00:04:05.448Z,0.00
2023-03-27T00:05:05.358Z,0.00
2023-03-27T00:06:05.365Z,0.00
2023-03-27T00:07:05.308Z,0.00
2023-03-27T00:08:05.380Z,0.00
2023-03-27T00:09:05.318Z,0.00
2023-03-27T00:10:05.307Z,0.00
2023-03-27T00:11:05.290Z,0.00
2023-03-27T00:12:05.276Z,0.00
2023-03-27T00:13:05.285Z,0.00
2023-03-27T00:14:05.258Z,0.00
2023-03-27T00:15:05.263Z,0.00
2023-03-27T00:16:05.262Z,0.00
2023-03-27T00:17:05.279Z,0.00
2023-03-27T00:18:05.273Z,0.00
2023-03-27T00:19:05.216Z,0.00
2023-03-27T00:20:05.199Z,0.00
2023-03-27T00:21:05.204Z,0.00
2023-03-27T00:22:05.154Z,0.00
2023-03-27T00:23:05.150Z,0.00
2023-03-27T00:24:05.148Z,0.00
2023-03-27T00:25:05.175Z,0.00
2023-03-27T00:26:05.154Z,0.00
2023-03-27T00:27:05.153Z,0.00
2023-03-27T00:28:05.140Z,0.00
2023-03-27T00:29:05.133Z,0.00
2023-03-27T00:30:05.109Z,0.00
2023-03-27T00:31:05.110Z,0.00
2023-03-27T00:32:05.070Z,0.00
2023-03-27T00:33:05.140Z,0.00
2023-03-27T00:34:05.058Z,0.00
2023-03-27T00:35:05.174Z,0.00
2023-03-27T00:36:05.096Z,0.00
2023-03-27T00:37:05.034Z,0.00
2023-03-27T00:38:05.012Z,0.00
2023-03-27T00:39:05.015Z,0.00
2023-03-27T00:40:04.978Z,0.00
2023-03-27T00:41:05.149Z,0.00
2023-03-27T00:42:04.987Z,0.00
2023-03-27T00:43:04.948Z,0.00
2023-03-27T00:44:04.926Z,0.00
2023-03-27T00:45:04.967Z,0.00
2023-03-27T00:46:04.945Z,0.00
2023-03-27T00:47:04.919Z,0.00
2023-03-27T00:48:04.942Z,0.00
2023-03-27T00:49:04.899Z,0.00
2023-03-27T00:50:04.899Z,0.00
2023-03-27T00:51:04.905Z,0.00
2023-03-27T00:52:04.894Z,0.00
2023-03-27T00:53:04.854Z,0.00
2023-03-27T00:54:04.836Z,0.00
2023-03-27T00:55:04.835Z,0.00
2023-03-27T00:56:04.849Z,0.00
2023-03-27T00:57:04.870Z,0.00
2023-03-27T00:58:04.785Z,0.00
2023-03-27T00:59:04.807Z,0.00
2023-03-27T01:00:04.782Z,0.00
2023-03-27T01:01:04.815Z,0.00
2023-03-27T01:02:04.818Z,0.00
2023-03-27T01:03:04.864Z,0.00
2023-03-27T01:04:04.757Z,0.00
2023-03-27T01:05:04.731Z,0.00
2023-03-27T01:06:04.743Z,0.00
2023-03-27T01:07:04.743Z,0.00
2023-03-27T01:08:04.689Z,0.00
2023-03-27T01:09:04.707Z,0.00
2023-03-27T01:10:04.667Z,0.00
2023-03-27T01:11:04.650Z,0.00
2023-03-27T01:12:04.696Z,0.00
2023-03-27T01:13:04.658Z,0.00
2023-03-27T01:14:04.653Z,0.00
2023-03-27T01:15:04.612Z,0.00
2023-03-27T01:16:04.649Z,0.00
2023-03-27T01:17:04.626Z,0.00
2023-03-27T01:18:04.632Z,0.00
2023-03-27T01:19:04.595Z,0.00
2023-03-27T01:20:04.571Z,0.00
2023-03-27T01:21:04.585Z,0.00
2023-03-27T01:22:04.566Z,0.00
2023-03-27T01:23:04.562Z,0.00
2023-03-27T01:24:04.528Z,0.00
2023-03-27T01:25:04.513Z,0.00
2023-03-27T01:26:04.505Z,0.00
2023-03-27T01:27:04.540Z,0.00
2023-03-27T01:28:04.497Z,0.00
2023-03-27T01:29:04.506Z,0.00
2023-03-27T01:30:04.447Z,0.00
2023-03-27T01:31:04.442Z,0.00
2023-03-27T01:32:04.451Z,0.00
2023-03-27T01:33:04.486Z,0.00
2023-03-27T01:34:04.412Z,0.00
2023-03-27T01:35:04.508Z,0.00
2023-03-27T01:36:04.468Z,0.00
2023-03-27T01:37:04.418Z,0.00
2023-03-27T01:38:04.380Z,0.00
2023-03-27T01:39:04.360Z,0.00
2023-03-27T01:40:04.352Z,0.00
2023-03-27T01:41:04.356Z,0.00
2023-03-27T01:42:04.366Z,0.00
2023-03-27T01:43:04.419Z,0.00
2023-03-27T01:44:04.550Z,0.00
2023-03-27T01:45:04.334Z,0.00
2023-03-27T01:46:04.294Z,0.00
2023-03-27T01:47:04.384Z,0.00
2023-03-27T01:48:04.343Z,0.00
2023-03-27T01:49:04.303Z,0.00
2023-03-27T01:50:04.264Z,0.00
2023-03-27T01:51:04.246Z,0.00
2023-03-27T01:52:04.269Z,0.00
2023-03-27T01:53:04.255Z,0.00
2023-03-27T01:54:04.243Z,0.00
2023-03-27T01:55:04.216Z,0.00
2023-03-27T01:56:04.219Z,0.00
2023-03-27T01:57:04.284Z,0.00
2023-03-27T01:58:04.272Z,0.00
2023-03-27T01:59:04.225Z,0.00
2023-03-27T02:00:17.386Z,0.00
2023-03-27T02:01:05.477Z,0.00
2023-03-27T02:02:04.161Z,0.00
2023-03-27T02:03:04.163Z,0.00
2023-03-27T02:04:04.133Z,0.00
2023-03-27T02:05:04.148Z,0.00
2023-03-27T02:06:04.110Z,0.00
2023-03-27T02:07:04.100Z,0.00
2023-03-27T02:08:04.122Z,0.00
2023-03-27T02:09:04.059Z,0.00
2023-03-27T02:10:04.097Z,0.00
2023-03-27T02:11:04.032Z,0.00
2023-03-27T02:12:04.044Z,0.00
2023-03-27T02:13:04.021Z,0.00
2023-03-27T02:14:03.997Z,0.00
2023-03-27T02:15:24.562Z,0.00
2023-03-27T02:16:05.095Z,0.00
2023-03-27T02:17:03.971Z,0.00
2023-03-27T02:18:04.067Z,0.00
2023-03-27T02:19:03.998Z,0.00
2023-03-27T02:20:03.959Z,0.00
2023-03-27T02:21:04.030Z,0.00
2023-03-27T02:22:03.934Z,0.00
2023-03-27T02:23:03.942Z,0.00
2023-03-27T02:24:03.906Z,0.00
2023-03-27T02:25:03.891Z,0.00
2023-03-27T02:26:03.941Z,0.00
2023-03-27T02:27:03.883Z,0.00
2023-03-27T02:28:03.914Z,0.00
2023-03-27T02:29:03.853Z,0.00
2023-03-27T02:30:03.861Z,0.00
2023-03-27T02:31:06.811Z,0.00
2023-03-27T02:32:04.875Z,0.00
2023-03-27T02:33:03.884Z,0.00
2023-03-27T02:34:03.800Z,0.00
2023-03-27T02:35:03.797Z,0.00
2023-03-27T02:36:03.828Z,0.00
2023-03-27T02:37:03.843Z,0.00
2023-03-27T02:38:03.769Z,0.00
2023-03-27T02:39:03.757Z,0.00
2023-03-27T02:40:03.764Z,0.00
2023-03-27T02:41:03.759Z,0.00
2023-03-27T02:42:03.774Z,0.00
2023-03-27T02:43:03.722Z,0.00
2023-03-27T02:44:03.702Z,0.00
2023-03-27T02:45:03.732Z,0.00
2023-03-27T02:46:03.699Z,0.00
2023-03-27T02:47:03.691Z,0.00
2023-03-27T02:48:03.685Z,0.00
2023-03-27T02:49:03.674Z,0.00
2023-03-27T02:50:03.687Z,0.00
2023-03-27T02:51:03.621Z,0.00
2023-03-27T02:52:03.653Z,0.00
2023-03-27T02:53:03.633Z,0.00
2023-03-27T02:54:03.639Z,0.00
2023-03-27T02:55:03.609Z,0.00
2023-03-27T02:56:03.613Z,0.00
2023-03-27T02:57:03.623Z,0.00
2023-03-27T02:58:03.589Z,0.00
2023-03-27T02:59:03.558Z,0.00
2023-03-27T03:00:03.559Z,0.00
2023-03-27T03:01:03.597Z,0.00
2023-03-27T03:02:03.554Z,0.00
2023-03-27T03:03:03.630Z,0.00
2023-03-27T03:04:03.490Z,0.00
2023-03-27T03:05:03.550Z,0.00
2023-03-27T03:06:03.493Z,0.00
2023-03-27T03:07:03.502Z,0.00
2023-03-27T03:08:03.507Z,0.00
2023-03-27T03:09:03.456Z,0.00
2023-03-27T03:10:03.477Z,0.00
2023-03-27T03:11:03.445Z,0.00
2023-03-27T03:12:03.454Z,0.00
2023-03-27T03:13:03.428Z,0.00
2023-03-27T03:14:03.459Z,0.00
2023-03-27T03:15:03.416Z,0.00
2023-03-27T03:16:03.390Z,0.00
2023-03-27T03:17:03.385Z,0.00
2023-03-27T03:18:03.457Z,0.00
2023-03-27T03:19:03.358Z,0.00
2023-03-27T03:20:03.398Z,0.00
2023-03-27T03:21:03.326Z,0.00
2023-03-27T03:22:03.316Z,0.00
2023-03-27T03:23:03.329Z,0.00
2023-03-27T03:24:03.344Z,0.00
2023-03-27T03:25:03.322Z,0.00
2023-03-27T03:26:03.302Z,0.00
2023-03-27T03:27:03.305Z,0.00
2023-03-27T03:28:03.275Z,0.00
2023-03-27T03:29:03.281Z,0.00
2023-03-27T03:30:03.244Z,0.00
2023-03-27T03:31:03.345Z,0.00
2023-03-27T03:32:03.235Z,0.00
2023-03-27T03:33:03.261Z,0.00
2023-03-27T03:34:03.192Z,0.00
2023-03-27T03:35:03.206Z,0.00
2023-03-27T03:36:03.213Z,0.00
2023-03-27T03:37:03.193Z,0.00
2023-03-27T03:38:03.207Z,0.00
2023-03-27T03:39:03.170Z,0.00
2023-03-27T03:40:03.163Z,0.00
2023-03-27T03:41:03.120Z,0.00
2023-03-27T03:42:03.168Z,0.00
2023-03-27T03:43:03.119Z,0.00
2023-03-27T03:44:03.156Z,0.00
2023-03-27T03:45:03.099Z,0.00
2023-03-27T03:46:03.165Z,0.00
2023-03-27T03:47:03.094Z,0.00
2023-03-27T03:48:03.075Z,0.00
2023-03-27T03:49:03.080Z,0.00
2023-03-27T03:50:03.039Z,0.00
2023-03-27T03:51:03.077Z,0.00
2023-03-27T03:52:03.039Z,0.00
2023-03-27T03:53:03.027Z,0.00
2023-03-27T03:54:02.985Z,0.00
2023-03-27T03:55:03.012Z,0.00
2023-03-27T03:56:03.003Z,0.00
2023-03-27T03:57:03.107Z,0.00
2023-03-27T03:58:02.954Z,0.00
2023-03-27T03:59:02.939Z,0.00
2023-03-27T04:00:02.921Z,0.00
2023-03-27T04:01:02.934Z,0.00
2023-03-27T04:02:02.984Z,0.00
2023-03-27T04:03:03.055Z,0.00
2023-03-27T04:04:02.906Z,0.00
2023-03-27T04:05:09.389Z,0.00
2023-03-27T04:06:03.871Z,0.00
2023-03-27T04:07:02.881Z,0.00
2023-03-27T04:08:02.898Z,0.00
2023-03-27T04:09:02.832Z,0.00
2023-03-27T04:10:02.842Z,0.00
2023-03-27T04:11:02.845Z,0.00
2023-03-27T04:12:02.764Z,1.00
2023-03-27T04:13:02.811Z,0.00
2023-03-27T04:14:02.791Z,0.00
2023-03-27T04:15:02.789Z,0.00
2023-03-27T04:16:02.873Z,0.00
2023-03-27T04:17:02.727Z,1.00
2023-03-27T04:18:02.757Z,1.00
2023-03-27T04:19:02.709Z,1.00
2023-03-27T04:20:02.730Z,0.00
2023-03-27T04:21:02.754Z,0.00
2023-03-27T04:22:02.716Z,2.00
2023-03-27T04:23:02.654Z,2.00
2023-03-27T04:24:02.968Z,1.00
2023-03-27T04:25:02.622Z,1.00
2023-03-27T04:26:02.676Z,2.00
2023-03-27T04:27:02.588Z,1.00
2023-03-27T04:28:02.622Z,2.00
2023-03-27T04:29:02.614Z,2.00
2023-03-27T04:30:02.631Z,5.00
2023-03-27T04:31:02.621Z,4.00
2023-03-27T04:32:02.554Z,3.00
2023-03-27T04:33:02.660Z,10.00
2023-03-27T04:34:02.527Z,10.00
2023-03-27T04:35:02.573Z,9.00
2023-03-27T04:36:06.396Z,12.00
2023-03-27T04:37:03.612Z,13.00
2023-03-27T04:38:02.527Z,15.00
2023-03-27T04:39:02.496Z,18.00
2023-03-27T04:40:02.500Z,26.00
2023-03-27T04:41:02.586Z,30.00
2023-03-27T04:42:02.464Z,35.00
2023-03-27T04:43:02.478Z,39.00
2023-03-27T04:44:02.441Z,47.00
2023-03-27T04:45:02.442Z,54.00
2023-03-27T04:46:02.436Z,61.00
2023-03-27T04:47:02.527Z,74.00
2023-03-27T04:48:02.435Z,82.00
2023-03-27T04:49:02.431Z,94.00
2023-03-27T04:50:02.414Z,105.00
2023-03-27T04:51:02.399Z,118.00
2023-03-27T04:52:02.379Z,133.00
2023-03-27T04:53:02.370Z,147.00
2023-03-27T04:54:02.332Z,167.00
2023-03-27T04:55:02.333Z,180.00
2023-03-27T04:56:02.330Z,196.00
2023-03-27T04:57:02.379Z,214.00
2023-03-27T04:58:02.314Z,228.00
2023-03-27T04:59:02.304Z,246.00
2023-03-27T05:00:02.404Z,263.00
2023-03-27T05:01:02.479Z,277.00
2023-03-27T05:02:02.274Z,294.00
2023-03-27T05:03:02.328Z,309.00
2023-03-27T05:04:02.407Z,327.00
2023-03-27T05:05:02.339Z,347.00
2023-03-27T05:06:02.239Z,372.00
2023-03-27T05:07:02.402Z,375.00
2023-03-27T05:08:02.186Z,366.00
2023-03-27T05:09:02.187Z,364.00
2023-03-27T05:10:02.227Z,393.00
2023-03-27T05:11:02.240Z,438.00
2023-03-27T05:12:02.177Z,474.00
2023-03-27T05:13:02.177Z,553.00
2023-03-27T05:14:02.134Z,593.00
2023-03-27T05:15:02.151Z,604.00
2023-03-27T05:16:02.244Z,579.00
2023-03-27T05:17:02.159Z,571.00
2023-03-27T05:18:02.201Z,593.00
2023-03-27T05:19:02.089Z,661.00
2023-03-27T05:20:02.127Z,644.00
2023-03-27T05:21:02.096Z,665.00
2023-03-27T05:22:02.049Z,708.00
2023-03-27T05:23:02.153Z,776.00
2023-03-27T05:24:02.129Z,833.00
2023-03-27T05:25:02.050Z,880.00
2023-03-27T05:26:02.332Z,930.00
2023-03-27T05:27:01.982Z,977.00
2023-03-27T05:28:02.071Z,1002.00
2023-03-27T05:29:02.003Z,1041.00
2023-03-27T05:30:01.979Z,1091.00
2023-03-27T05:31:02.080Z,1166.00
2023-03-27T05:32:01.958Z,1237.00
2023-03-27T05:33:01.996Z,1229.00
2023-03-27T05:34:01.945Z,1205.00
2023-03-27T05:35:01.975Z,1120.00
2023-03-27T05:36:01.992Z,1206.00
2023-03-27T05:37:01.881Z,1421.00
2023-03-27T05:38:01.933Z,1330.00
2023-03-27T05:39:01.891Z,1341.00
2023-03-27T05:40:01.984Z,1362.00
2023-03-27T05:41:01.918Z,1391.00
2023-03-27T05:42:01.846Z,1344.00
2023-03-27T05:43:01.862Z,1319.00
2023-03-27T05:44:01.863Z,1507.00
2023-03-27T05:45:01.806Z,1687.00
2023-03-27T05:46:01.900Z,1609.00
2023-03-27T05:47:01.799Z,1457.00
2023-03-27T05:48:01.881Z,1620.00
2023-03-27T05:49:01.804Z,1515.00
2023-03-27T05:50:01.793Z,1431.00
2023-03-27T05:51:01.816Z,1374.00
2023-03-27T05:52:01.774Z,1366.00
2023-03-27T05:53:01.772Z,1345.00
2023-03-27T05:54:01.717Z,1361.00
2023-03-27T05:55:01.730Z,1181.00
2023-03-27T05:56:02.936Z,1827.00
2023-03-27T05:57:01.789Z,1716.00
2023-03-27T05:58:01.668Z,1726.00
2023-03-27T05:59:01.684Z,1670.00
2023-03-27T06:00:01.716Z,1707.00
2023-03-27T06:01:01.639Z,1289.00
2023-03-27T06:02:01.716Z,2331.00
2023-03-27T06:03:01.803Z,2171.00
2023-03-27T06:04:01.683Z,2016.00
2023-03-27T06:05:01.632Z,1930.00
2023-03-27T06:06:01.627Z,749.00
2023-03-27T06:07:01.791Z,4013.00
2023-03-27T06:08:01.606Z,711.00
2023-03-27T06:09:01.609Z,3633.00
2023-03-27T06:10:01.587Z,3713.00
2023-03-27T06:11:01.596Z,3616.00
2023-03-27T06:12:01.608Z,3639.00
2023-03-27T06:13:01.565Z,3839.00
2023-03-27T06:14:01.739Z,3874.00
2023-03-27T06:15:01.625Z,3727.00
2023-03-27T06:16:01.585Z,3763.00
2023-03-27T06:17:01.522Z,3845.00
2023-03-27T06:18:01.604Z,3783.00
2023-03-27T06:19:01.500Z,4105.00
2023-03-27T06:20:01.453Z,3320.00
2023-03-27T06:21:01.474Z,2724.00
2023-03-27T06:22:01.475Z,2505.00
2023-03-27T06:23:01.438Z,2511.00
2023-03-27T06:24:01.447Z,2551.00
2023-03-27T06:25:01.431Z,2609.00
2023-03-27T06:26:01.434Z,2596.00
2023-03-27T06:27:01.431Z,2615.00
2023-03-27T06:28:01.436Z,2612.00
2023-03-27T06:29:01.390Z,2632.00
2023-03-27T06:30:02.351Z,2627.00
2023-03-27T06:31:01.394Z,2615.00
2023-03-27T06:32:01.354Z,2615.00
2023-03-27T06:33:01.396Z,2621.00
2023-03-27T06:34:01.378Z,2630.00
2023-03-27T06:35:01.354Z,2630.00
2023-03-27T06:36:01.344Z,2635.00
2023-03-27T06:37:01.293Z,2635.00
2023-03-27T06:38:01.265Z,2661.00
2023-03-27T06:39:01.412Z,2707.00
2023-03-27T06:40:01.306Z,2761.00
2023-03-27T06:41:01.258Z,2805.00
2023-03-27T06:42:01.227Z,2839.00
2023-03-27T06:43:01.216Z,2817.00
2023-03-27T06:44:01.305Z,2839.00
2023-03-27T06:45:01.392Z,2794.00
2023-03-27T06:46:02.016Z,2766.00
2023-03-27T06:47:01.210Z,2834.00
2023-03-27T06:48:13.585Z,2908.00
2023-03-27T06:49:02.333Z,3058.00
2023-03-27T06:50:01.190Z,3824.00
2023-03-27T06:51:01.164Z,4528.00
2023-03-27T06:52:01.235Z,4583.00
2023-03-27T06:53:01.222Z,5063.00
2023-03-27T06:54:01.155Z,4772.00
2023-03-27T06:55:01.149Z,3834.00
2023-03-27T06:56:01.369Z,3841.00
2023-03-27T06:57:01.099Z,3679.00
2023-03-27T06:58:01.135Z,3438.00
2023-03-27T06:59:01.108Z,3144.00
2023-03-27T07:00:02.422Z,3060.00
2023-03-27T07:01:01.095Z,2922.00
2023-03-27T07:02:01.100Z,2685.00
2023-03-27T07:03:01.032Z,2858.00
2023-03-27T07:04:01.137Z,2790.00
2023-03-27T07:05:04.707Z,2974.00
2023-03-27T07:06:01.255Z,3304.00
2023-03-27T07:07:00.985Z,3194.00
2023-03-27T07:08:08.128Z,3030.00
2023-03-27T07:09:01.994Z,2859.00
2023-03-27T07:10:01.022Z,2825.00
2023-03-27T07:11:11.633Z,1655.00
2023-03-27T07:12:01.926Z,3800.00
2023-03-27T07:13:00.915Z,3639.00
2023-03-27T07:14:00.957Z,3861.00
2023-03-27T07:15:00.923Z,4420.00
2023-03-27T07:16:00.949Z,4123.00
2023-03-27T07:17:00.912Z,3723.00
2023-03-27T07:18:00.863Z,1433.00
2023-03-27T07:19:02.211Z,4173.00
2023-03-27T07:20:00.890Z,4009.00
2023-03-27T07:21:01.091Z,3961.00
2023-03-27T07:22:00.868Z,3917.00
2023-03-27T07:23:00.827Z,4487.00
2023-03-27T07:24:00.808Z,4918.00
2023-03-27T07:25:00.812Z,2683.00
2023-03-27T07:26:01.014Z,4077.00
2023-03-27T07:27:00.778Z,4761.00
2023-03-27T07:28:00.776Z,3193.00
2023-03-27T07:29:00.884Z,1668.00
2023-03-27T07:30:00.787Z,5335.00
2023-03-27T07:31:00.755Z,5255.00
2023-03-27T07:32:04.508Z,5352.00
2023-03-27T07:33:01.797Z,2806.00
2023-03-27T07:34:00.840Z,1911.00
2023-03-27T07:35:00.742Z,5548.00
2023-03-27T07:36:00.925Z,6196.00
2023-03-27T07:37:00.749Z,7107.00
2023-03-27T07:38:00.669Z,3584.00
2023-03-27T07:39:00.662Z,4755.00
2023-03-27T07:40:00.683Z,4643.00
2023-03-27T07:41:00.626Z,4626.00
2023-03-27T07:42:00.672Z,4466.00
2023-03-27T07:43:00.603Z,1667.00
2023-03-27T07:44:00.595Z,6475.00
2023-03-27T07:45:01.889Z,1710.00
2023-03-27T07:46:00.725Z,5122.00
2023-03-27T07:47:00.617Z,5435.00
2023-03-27T07:48:00.605Z,6665.00
2023-03-27T07:49:01.265Z,8317.00
2023-03-27T07:50:00.557Z,2631.00
2023-03-27T07:51:10.742Z,7092.00
2023-03-27T07:52:01.569Z,6293.00
2023-03-27T07:53:00.567Z,4708.00
2023-03-27T07:54:00.517Z,5782.00
2023-03-27T07:55:00.521Z,4789.00
2023-03-27T07:56:00.494Z,4348.00
2023-03-27T07:57:00.586Z,3245.00
2023-03-27T07:58:02.967Z,3535.00
2023-03-27T07:59:00.458Z,6288.00
2023-03-27T08:00:00.422Z,6449.00
2023-03-27T08:01:00.422Z,6744.00
2023-03-27T08:02:00.467Z,6986.00
2023-03-27T08:03:00.569Z,7967.00
2023-03-27T08:04:00.654Z,4800.00
2023-03-27T08:05:00.503Z,4922.00
2023-03-27T08:06:00.661Z,3576.00
2023-03-27T08:07:00.410Z,3648.00
2023-03-27T08:08:00.443Z,3611.00
2023-03-27T08:09:02.274Z,3586.00
2023-03-27T08:10:00.346Z,4001.00
2023-03-27T08:11:00.341Z,4714.00
2023-03-27T08:12:00.323Z,5196.00
2023-03-27T08:13:00.389Z,4866.00
2023-03-27T08:14:00.278Z,4719.00
2023-03-27T08:15:00.320Z,4967.00
2023-03-27T08:16:00.318Z,4385.00
2023-03-27T08:17:12.736Z,3748.00
2023-03-27T08:18:01.329Z,3398.00
2023-03-27T08:19:00.260Z,1339.00
2023-03-27T08:20:00.303Z,6773.00
2023-03-27T08:21:00.264Z,8217.00
2023-03-27T08:22:00.234Z,8880.00
2023-03-27T08:23:00.217Z,5566.00
2023-03-27T08:24:00.194Z,5168.00
2023-03-27T08:25:00.195Z,4007.00
2023-03-27T08:26:00.179Z,1750.00
2023-03-27T08:27:00.234Z,8461.00
2023-03-27T08:28:00.204Z,1654.00
2023-03-27T08:29:00.188Z,7830.00
2023-03-27T08:30:00.175Z,3966.00
2023-03-27T08:31:02.573Z,1508.00
2023-03-27T08:32:00.117Z,3061.00
2023-03-27T08:33:00.268Z,7739.00
2023-03-27T08:34:00.151Z,8064.00
2023-03-27T08:35:00.170Z,9003.00
2023-03-27T08:36:00.294Z,10249.00
2023-03-27T08:37:00.140Z,4685.00
2023-03-27T08:38:00.062Z,10116.00
2023-03-27T08:39:00.192Z,2046.00
2023-03-27T08:40:00.005Z,9808.00
2023-03-27T08:41:00.024Z,1889.00
2023-03-27T08:41:59.999Z,8341.00
2023-03-27T08:43:00.032Z,8745.00
2023-03-27T08:44:00.025Z,8617.00
2023-03-27T08:44:59.976Z,8439.00
2023-03-27T08:46:00.279Z,9101.00
2023-03-27T08:46:59.942Z,8413.00
2023-03-27T08:48:00.007Z,4435.00
2023-03-27T08:48:59.957Z,1637.00
2023-03-27T08:49:59.933Z,8476.00
2023-03-27T08:50:59.916Z,9810.00
2023-03-27T08:51:59.914Z,3645.00
2023-03-27T08:52:59.925Z,4213.00
2023-03-27T08:53:59.948Z,10451.00
2023-03-27T08:54:59.913Z,6987.00
2023-03-27T08:55:59.879Z,4949.00
2023-03-27T08:56:59.877Z,5064.00
2023-03-27T08:57:59.836Z,5364.00
2023-03-27T08:58:59.860Z,2575.00
2023-03-27T08:59:59.837Z,6096.00
2023-03-27T09:00:59.802Z,3838.00
2023-03-27T09:01:59.838Z,3559.00
2023-03-27T09:02:59.982Z,3422.00
2023-03-27T09:04:00.025Z,3354.00
2023-03-27T09:04:59.791Z,3388.00
2023-03-27T09:05:59.951Z,3584.00
2023-03-27T09:06:59.759Z,1635.00
2023-03-27T09:07:59.731Z,7802.00
2023-03-27T09:08:59.721Z,9685.00
2023-03-27T09:09:59.807Z,9838.00
2023-03-27T09:10:59.719Z,12570.00
2023-03-27T09:11:59.749Z,8520.00
2023-03-27T09:12:59.681Z,5487.00
2023-03-27T09:13:59.687Z,5076.00
2023-03-27T09:14:59.724Z,2538.00
2023-03-27T09:15:59.996Z,7572.00
2023-03-27T09:16:59.702Z,4455.00
2023-03-27T09:17:59.741Z,3954.00
2023-03-27T09:18:59.693Z,3809.00
2023-03-27T09:19:59.661Z,4155.00
2023-03-27T09:20:59.639Z,4903.00
2023-03-27T09:21:59.657Z,5332.00
2023-03-27T09:22:59.678Z,5123.00
2023-03-27T09:23:59.574Z,5269.00
2023-03-27T09:24:59.577Z,5251.00
2023-03-27T09:25:59.732Z,2236.00
2023-03-27T09:27:07.292Z,3443.00
2023-03-27T09:28:00.567Z,9700.00
2023-03-27T09:28:59.542Z,10099.00
2023-03-27T09:30:05.276Z,13509.00
2023-03-27T09:31:00.508Z,6439.00
2023-03-27T09:31:59.533Z,10302.00
2023-03-27T09:32:59.620Z,5553.00
2023-03-27T09:33:59.473Z,5395.00
2023-03-27T09:34:59.583Z,5291.00
2023-03-27T09:35:59.925Z,4862.00
2023-03-27T09:36:59.470Z,4420.00
2023-03-27T09:37:59.457Z,3848.00
2023-03-27T09:38:59.418Z,3358.00
2023-03-27T09:39:59.397Z,3251.00
2023-03-27T09:40:59.593Z,3632.00
2023-03-27T09:41:59.410Z,3831.00
2023-03-27T09:42:59.386Z,4029.00
2023-03-27T09:43:59.376Z,1598.00
2023-03-27T09:44:59.393Z,4545.00
2023-03-27T09:45:59.385Z,10005.00
2023-03-27T09:46:59.364Z,9986.00
2023-03-27T09:48:00.003Z,10355.00
2023-03-27T09:48:59.650Z,10301.00
2023-03-27T09:49:59.344Z,10061.00
2023-03-27T09:50:59.278Z,10036.00
2023-03-27T09:51:59.304Z,9561.00
2023-03-27T09:52:59.296Z,11786.00
2023-03-27T09:53:59.295Z,6776.00
2023-03-27T09:54:59.282Z,5410.00
2023-03-27T09:56:00.433Z,5676.00
2023-03-27T09:56:59.374Z,4635.00
2023-03-27T09:57:59.308Z,5120.00
2023-03-27T09:58:59.305Z,8094.00
2023-03-27T09:59:59.195Z,4535.00
2023-03-27T10:00:59.368Z,3884.00
2023-03-27T10:01:59.199Z,3978.00
2023-03-27T10:02:59.198Z,3994.00
2023-03-27T10:03:59.178Z,4560.00
2023-03-27T10:04:59.200Z,2323.00
2023-03-27T10:05:59.130Z,11801.00
2023-03-27T10:06:59.131Z,11405.00
2023-03-27T10:07:59.124Z,11098.00
2023-03-27T10:08:59.124Z,11086.00
2023-03-27T10:09:59.181Z,13709.00
2023-03-27T10:10:59.340Z,11552.00
2023-03-27T10:11:59.109Z,3162.00
2023-03-27T10:12:59.161Z,10730.00
2023-03-27T10:13:59.121Z,12113.00
2023-03-27T10:14:59.062Z,2044.00
2023-03-27T10:15:59.155Z,10527.00
2023-03-27T10:16:59.082Z,4650.00
2023-03-27T10:17:59.180Z,4191.00
2023-03-27T10:18:59.070Z,1941.00
2023-03-27T10:19:59.008Z,10604.00
2023-03-27T10:20:59.239Z,11043.00
2023-03-27T10:21:58.967Z,11315.00
2023-03-27T10:22:58.989Z,11994.00
2023-03-27T10:23:59.025Z,15548.00
2023-03-27T10:24:58.939Z,9980.00
2023-03-27T10:25:58.960Z,6109.00
2023-03-27T10:26:58.921Z,5739.00
2023-03-27T10:27:58.947Z,5292.00
2023-03-27T10:28:58.918Z,5422.00
2023-03-27T10:29:58.931Z,5528.00
2023-03-27T10:30:59.245Z,4489.00
2023-03-27T10:31:58.955Z,3715.00
2023-03-27T10:32:59.016Z,3560.00
2023-03-27T10:33:58.879Z,3607.00
2023-03-27T10:34:58.906Z,3159.00
2023-03-27T10:35:58.918Z,1918.00
2023-03-27T10:36:58.804Z,10830.00
2023-03-27T10:37:58.835Z,11143.00
2023-03-27T10:38:58.799Z,11247.00
2023-03-27T10:39:58.900Z,11344.00
2023-03-27T10:40:58.972Z,11400.00
2023-03-27T10:41:58.779Z,11343.00
2023-03-27T10:42:58.760Z,14284.00
2023-03-27T10:43:58.736Z,3250.00
2023-03-27T10:44:58.814Z,11866.00
2023-03-27T10:45:58.847Z,5811.00
2023-03-27T10:46:58.799Z,5397.00
2023-03-27T10:47:58.816Z,4715.00
2023-03-27T10:48:58.678Z,4204.00
2023-03-27T10:49:58.714Z,3564.00
2023-03-27T10:50:58.822Z,3259.00
2023-03-27T10:51:58.687Z,3082.00
2023-03-27T10:52:58.669Z,3122.00
2023-03-27T10:53:58.754Z,3332.00
2023-03-27T10:54:58.695Z,3710.00
2023-03-27T10:55:58.644Z,4128.00
2023-03-27T10:56:58.711Z,4181.00
2023-03-27T10:57:58.608Z,4069.00
2023-03-27T10:58:58.605Z,4085.00
2023-03-27T10:59:58.582Z,4308.00
2023-03-27T11:00:59.023Z,4864.00
2023-03-27T11:01:58.651Z,5240.00
2023-03-27T11:02:58.588Z,5045.00
2023-03-27T11:03:58.696Z,5235.00
2023-03-27T11:04:58.625Z,5424.00
2023-03-27T11:05:58.507Z,2096.00
2023-03-27T11:06:58.600Z,11251.00
2023-03-27T11:07:58.496Z,6785.00
2023-03-27T11:08:58.538Z,2371.00
2023-03-27T11:09:58.517Z,11340.00
2023-03-27T11:10:58.837Z,12453.00
2023-03-27T11:11:58.473Z,12073.00
2023-03-27T11:12:58.497Z,11995.00
2023-03-27T11:13:58.464Z,12092.00
2023-03-27T11:14:58.435Z,13137.00
2023-03-27T11:15:58.409Z,11824.00
2023-03-27T11:16:58.465Z,8199.00
2023-03-27T11:17:58.428Z,10756.00
2023-03-27T11:18:58.399Z,11327.00
2023-03-27T11:19:58.399Z,12101.00
2023-03-27T11:20:58.576Z,11911.00
2023-03-27T11:21:58.564Z,12083.00
2023-03-27T11:22:58.359Z,14414.00
2023-03-27T11:23:58.361Z,10863.00
2023-03-27T11:24:58.314Z,2085.00
2023-03-27T11:25:58.313Z,12033.00
2023-03-27T11:26:58.373Z,12396.00
2023-03-27T11:27:58.285Z,11746.00
2023-03-27T11:28:58.277Z,12216.00
2023-03-27T11:29:58.354Z,10818.00
2023-03-27T11:30:58.522Z,11013.00
2023-03-27T11:31:59.336Z,11343.00
2023-03-27T11:32:58.324Z,12703.00
2023-03-27T11:33:58.245Z,13807.00
2023-03-27T11:35:00.058Z,7098.00
2023-03-27T11:35:58.270Z,12597.00
2023-03-27T11:36:58.263Z,12565.00
2023-03-27T11:37:58.189Z,12579.00
2023-03-27T11:38:58.216Z,12501.00
2023-03-27T11:39:58.204Z,12825.00
2023-03-27T11:40:58.456Z,2164.00
2023-03-27T11:41:58.157Z,10899.00
2023-03-27T11:42:58.146Z,5306.00
2023-03-27T11:43:58.118Z,6263.00
2023-03-27T11:44:58.144Z,3981.00
2023-03-27T11:45:58.138Z,3788.00
2023-03-27T11:46:58.089Z,3768.00
2023-03-27T11:47:58.134Z,3943.00
2023-03-27T11:48:58.129Z,4221.00
2023-03-27T11:49:58.132Z,1793.00
2023-03-27T11:50:58.301Z,9721.00
2023-03-27T11:51:58.028Z,9448.00
2023-03-27T11:52:58.027Z,2341.00
2023-03-27T11:53:58.013Z,12997.00
2023-03-27T11:54:58.036Z,12838.00
2023-03-27T11:55:57.993Z,6543.00
2023-03-27T11:56:58.186Z,6125.00
2023-03-27T11:57:57.987Z,5642.00
2023-03-27T11:58:58.023Z,2160.00
2023-03-27T11:59:57.951Z,11924.00
2023-03-27T12:00:58.257Z,11755.00
2023-03-27T12:01:57.941Z,11485.00
2023-03-27T12:02:58.046Z,11661.00
2023-03-27T12:03:58.080Z,11558.00
2023-03-27T12:04:57.881Z,13447.00
2023-03-27T12:05:57.949Z,2675.00
2023-03-27T12:07:03.919Z,11536.00
2023-03-27T12:07:58.882Z,10976.00
2023-03-27T12:08:57.863Z,10465.00
2023-03-27T12:09:57.870Z,11020.00
2023-03-27T12:10:58.030Z,9675.00
2023-03-27T12:11:57.820Z,10886.00
2023-03-27T12:12:57.807Z,8621.00
2023-03-27T12:14:01.874Z,8673.00
2023-03-27T12:14:58.839Z,6597.00
2023-03-27T12:15:57.786Z,4639.00
2023-03-27T12:16:57.871Z,5023.00
2023-03-27T12:17:57.823Z,5228.00
2023-03-27T12:19:03.873Z,5331.00
2023-03-27T12:19:59.064Z,6337.00
2023-03-27T12:20:57.825Z,11468.00
2023-03-27T12:21:57.760Z,1915.00
2023-03-27T12:22:57.725Z,11358.00
2023-03-27T12:23:57.695Z,10791.00
2023-03-27T12:24:59.905Z,10827.00
2023-03-27T12:25:57.730Z,11227.00
2023-03-27T12:26:57.682Z,10806.00
2023-03-27T12:27:57.658Z,10683.00
2023-03-27T12:28:57.678Z,10810.00
2023-03-27T12:29:57.780Z,10981.00